• Join FlightAware (Why Join?)
  • Login
  • US Flag 
06:38PM EDT


 

Airport Tracker/Info


-or-


 

Live Flight TrackerFlight Track Log ✈ LYM613 ✈ 12-Jun-2013 ✈ KSLC - KAPA

Flight Track Log - Related Links

Times and Time Zones

All times are in EDT time to prevent confusion due to time zone crossing. See the LYM613 flight status page for this flight to view local times or setup timezone preferences in your user account.

Time Position Orientation Groundspeed Altitude Reporting Facility
EDT Latitude Longitude Course Direction KTS MPH feet Rate Location/Type
04:50PM 40.7800 -112.0194 276° West 211 243 8,100  Level Salt Lake Center
04:51PM 40.8264 -112.0853 313° West 252 290 10,000 1,320 Climbing Salt Lake Center
04:52PM 40.8794 -112.1644 312° West 286 329 10,900 1,320 Climbing Salt Lake Center
04:53PM 40.9564 -112.2136 334° Northwest 338 389 12,800 2,160 Climbing Salt Lake Center
04:54PM 41.0036 -112.1083 59° Northeast 363 418 15,400 2,460 Climbing Salt Lake Center
04:55PM 40.9919 -111.9514 96° East 361 415 18,000 2,340 Climbing Salt Lake Center
04:56PM 40.9833 -111.8186 95° East 380 437 20,300 2,160 Climbing Salt Lake Center
04:57PM 40.9711 -111.6856 97° East 377 434 22,500 2,100 Climbing Salt Lake Center
04:58PM 40.9600 -111.5489 96° East 377 434 24,700 1,980 Climbing Salt Lake Center
04:59PM 40.9481 -111.4086 96° East 386 444 26,600 2,040 Climbing Salt Lake Center
05:00PM 40.9333 -111.2414 97° East 381 438 29,000 1,860 Climbing Salt Lake Center
05:01PM 40.9206 -111.1003 97° East 387 445 30,500 960 Climbing Salt Lake Center
05:02PM 40.9069 -110.9528 97° East 403 464 31,000 240 Climbing Salt Lake Center
05:03PM 40.8931 -110.7958 97° East 428 493 31,000  Level Salt Lake Center
05:04PM 40.8778 -110.6375 97° East 434 499 31,000  Level Salt Lake Center
05:05PM 40.8611 -110.4550 97° East 439 505 31,000  Level Salt Lake Center
05:06PM 40.8469 -110.3025 97° East 439 505 31,000  Level Salt Lake Center
05:07PM 40.8303 -110.1322 97° East 440 506 31,000  Level Salt Lake Center
05:08PM 40.8156 -109.9803 97° East 438 504 31,000  Level Salt Lake Center
05:09PM 40.7975 -109.8025 98° East 438 504 31,000  Level Salt Lake Center
05:10PM 40.7819 -109.6483 98° East 440 506 31,000  Level Salt Lake Center
05:11PM 40.7636 -109.4686 98° East 441 507 31,000  Level Salt Lake Center
05:12PM 40.7478 -109.3169 98° East 438 504 31,000  Level Salt Lake Center
05:13PM 40.7311 -109.1603 98° East 441 507 31,000  Level Salt Lake Center
05:14PM 40.7189 -109.0292 97° East 446 513 31,000  Level Denver Center
05:15PM 40.7017 -108.8756 98° East 444 511 31,000  Level Denver Center
05:15PM 40.6964 -108.8269 98° East 444 511 31,000  Level Salt Lake Center
05:16PM 40.6825 -108.6472 96° East 445 512 31,000  Level Salt Lake Center
05:17PM 40.6739 -108.5411 96° East 442 509 31,000  Level Denver Center
05:18PM 40.6578 -108.3606 97° East 444 511 31,000  Level Denver Center
05:19PM 40.6436 -108.2061 97° East 443 510 31,000  Level Denver Center
05:20PM 40.6275 -108.0258 97° East 442 509 31,000  Level Denver Center
05:21PM 40.6125 -107.8719 97° East 442 509 31,000  Level Denver Center
05:22PM 40.5981 -107.7181 97° East 442 509 31,000  Level Denver Center
05:23PM 40.5808 -107.5378 97° East 443 510 31,000  Level Denver Center
05:24PM 40.5656 -107.3844 97° East 442 509 31,000  Level Denver Center
05:25PM 40.5486 -107.2139 97° East 441 507 31,000  Level Denver Center
05:26PM 40.5322 -107.0486 97° East 442 509 31,000  Level Denver Center
05:27PM 40.5156 -106.8892 98° East 441 507 31,000  Level Denver Center
05:28PM 40.4989 -106.7289 98° East 441 507 31,000  Level Denver Center
05:29PM 40.4819 -106.5689 98° East 440 506 31,000  Level Denver Center
05:31PM 40.4642 -106.3931 98° East 437 503 31,000  Level Denver Center
05:32PM 40.4433 -106.2136 99° East 444 511 31,000 -60 Level Denver Center
05:33PM 40.4267 -106.0475 97° East 443 510 30,900 -1,020 Descending Denver Center
05:34PM 40.4097 -105.8917 98° East 435 501 29,000 -2,100 Descending Denver Center
05:35PM 40.3919 -105.7461 99° East 406 467 26,600 -2,280 Descending Denver Center
05:36PM 40.3750 -105.5936 98° East 421 484 24,400 -2,280 Descending Denver Center
05:37PM 40.3417 -105.4342 105° East 417 480 21,900 -2,280 Descending Denver Center
05:38PM 40.2817 -105.3178 124° Southeast 390 449 19,800 -2,040 Descending Denver Center
05:39PM 40.2131 -105.2117 130° Southeast 357 411 17,700 -2,520 Descending Denver Center
05:40PM 40.1506 -105.1153 130° Southeast 350 403 14,700 -3,120 Descending Denver Center
05:41PM 40.0881 -105.0164 130° Southeast 326 375 11,300 -2,280 Descending Denver Center
05:42PM 40.0322 -104.9428 135° Southeast 282 325 10,100 -900 Descending Denver Center
05:43PM 39.9614 -104.9064 159° South 274 315 9,500 -1,020 Descending Denver Center
05:44PM 39.8925 -104.8719 159° South 248 285 8,000 -720 Descending Denver Center
05:45PM 39.8242 -104.8650 176° South 250 288 8,100 -480 Climbing Denver Center
05:46PM 39.7522 -104.8608 177° South 241 277 7,100 -540 Descending Denver Center
05:47PM 39.6917 -104.8572 177° South 222 255 7,100 -60 Level Denver Center
05:48PM 39.6389 -104.8558 179° South 174 200 7,000 -480 Descending Denver Center
05:49PM 39.5989 -104.8525 176° South 147 169 6,200 -540 Descending Denver Center
05:50PM 39.5731 -104.8506 177° South 122 140 5,900 -300 Descending Denver Center
05:52PM 39.5701 -104.8493 173° South  Level Estimated
05:59PM 39.5701 -104.8493 173° South  Level Estimated
06:00PM 39.5701 -104.8493 173° South  Level Estimated